sensor_id;sensor_type;location;lat;lon;timestamp;temperature;humidity
11474;DHT22;5793;52.238;13.438;2024-01-15T00:02:29;1.70;99.90
11474;DHT22;5793;52.238;13.438;2024-01-15T00:04:57;1.60;99.90
11474;DHT22;5793;52.238;13.438;2024-01-15T00:07:25;1.60;99.90
11474;DHT22;5793;52.238;13.438;2024-01-15T00:09:52;1.60;99.90
11474;DHT22;5793;52.238;13.438;2024-01-15T00:12:20;1.60;99.90
11474;DHT22;5793;52.238;13.438;2024-01-15T00:14:48;1.60;99.90
11474;DHT22;5793;52.238;13.438;2024-01-15T00:17:16;1.50;99.90
11474;DHT22;5793;52.238;13.438;2024-01-15T00:19:45;1.50;99.90
11474;DHT22;5793;52.238;13.438;2024-01-15T00:22:13;1.50;99.90
11474;DHT22;5793;52.238;13.438;2024-01-15T00:24:41;1.50;99.90
11474;DHT22;5793;52.238;13.438;2024-01-15T00:27:09;1.40;99.90
11474;DHT22;5793;52.238;13.438;2024-01-15T00:29:37;1.40;99.90
11474;DHT22;5793;52.238;13.438;2024-01-15T00:32:05;1.30;99.90
11474;DHT22;5793;52.238;13.438;2024-01-15T00:34:33;1.30;99.90
11474;DHT22;5793;52.238;13.438;2024-01-15T00:37:02;1.30;99.90
11474;DHT22;5793;52.238;13.438;2024-01-15T00:39:33;1.20;99.90
11474;DHT22;5793;52.238;13.438;2024-01-15T00:42:02;1.20;99.90
11474;DHT22;5793;52.238;13.438;2024-01-15T00:44:30;1.20;99.90
11474;DHT22;5793;52.238;13.438;2024-01-15T00:46:57;1.30;99.90
11474;DHT22;5793;52.238;13.438;2024-01-15T00:49:27;1.30;99.90
11474;DHT22;5793;52.238;13.438;2024-01-15T00:51:55;1.30;99.90
11474;DHT22;5793;52.238;13.438;2024-01-15T00:54:24;1.30;99.90
11474;DHT22;5793;52.238;13.438;2024-01-15T00:56:51;1.30;99.90
11474;DHT22;5793;52.238;13.438;2024-01-15T00:59:19;1.30;99.90
11474;DHT22;5793;52.238;13.438;2024-01-15T01:01:47;1.20;99.90
11474;DHT22;5793;52.238;13.438;2024-01-15T01:04:15;1.30;99.90
11474;DHT22;5793;52.238;13.438;2024-01-15T01:06:43;1.30;99.90
11474;DHT22;5793;52.238;13.438;2024-01-15T01:09:11;1.30;99.90
11474;DHT22;5793;52.238;13.438;2024-01-15T01:11:40;1.30;99.90
11474;DHT22;5793;52.238;13.438;2024-01-15T01:14:08;1.30;99.90
11474;DHT22;5793;52.238;13.438;2024-01-15T01:16:36;1.30;99.90
11474;DHT22;5793;52.238;13.438;2024-01-15T01:19:06;1.40;99.90
11474;DHT22;5793;52.238;13.438;2024-01-15T01:21:34;1.40;99.90
11474;DHT22;5793;52.238;13.438;2024-01-15T01:24:03;1.30;99.90
11474;DHT22;5793;52.238;13.438;2024-01-15T01:26:31;1.30;99.90
11474;DHT22;5793;52.238;13.438;2024-01-15T01:29:00;1.30;99.90
11474;DHT22;5793;52.238;13.438;2024-01-15T01:31:28;1.30;99.90
11474;DHT22;5793;52.238;13.438;2024-01-15T01:33:56;1.30;99.90
11474;DHT22;5793;52.238;13.438;2024-01-15T01:36:24;1.30;99.90
11474;DHT22;5793;52.238;13.438;2024-01-15T01:38:51;1.30;99.90
11474;DHT22;5793;52.238;13.438;2024-01-15T01:41:19;1.30;99.90
11474;DHT22;5793;52.238;13.438;2024-01-15T01:43:47;1.30;99.90
11474;DHT22;5793;52.238;13.438;2024-01-15T01:46:16;1.30;99.90
11474;DHT22;5793;52.238;13.438;2024-01-15T01:48:44;1.30;99.90
11474;DHT22;5793;52.238;13.438;2024-01-15T01:51:13;1.20;99.90
11474;DHT22;5793;52.238;13.438;2024-01-15T01:53:41;1.10;99.90
11474;DHT22;5793;52.238;13.438;2024-01-15T01:56:09;1.20;99.90
11474;DHT22;5793;52.238;13.438;2024-01-15T01:58:37;1.20;99.90
11474;DHT22;5793;52.238;13.438;2024-01-15T02:01:05;1.20;99.90
11474;DHT22;5793;52.238;13.438;2024-01-15T02:03:35;1.20;99.90
11474;DHT22;5793;52.238;13.438;2024-01-15T02:06:03;1.20;99.90
11474;DHT22;5793;52.238;13.438;2024-01-15T02:08:32;1.30;99.90
11474;DHT22;5793;52.238;13.438;2024-01-15T02:11:00;1.30;99.90
11474;DHT22;5793;52.238;13.438;2024-01-15T02:13:27;1.40;99.90
11474;DHT22;5793;52.238;13.438;2024-01-15T02:15:55;1.40;99.90
11474;DHT22;5793;52.238;13.438;2024-01-15T02:18:23;1.30;99.90
11474;DHT22;5793;52.238;13.438;2024-01-15T02:20:52;1.40;99.90
11474;DHT22;5793;52.238;13.438;2024-01-15T02:23:21;1.40;99.90
11474;DHT22;5793;52.238;13.438;2024-01-15T02:25:49;1.40;99.90
11474;DHT22;5793;52.238;13.438;2024-01-15T02:28:17;1.30;99.90
11474;DHT22;5793;52.238;13.438;2024-01-15T02:30:45;1.30;99.90
11474;DHT22;5793;52.238;13.438;2024-01-15T02:33:13;1.30;99.90
11474;DHT22;5793;52.238;13.438;2024-01-15T02:35:41;1.20;99.90
11474;DHT22;5793;52.238;13.438;2024-01-15T02:38:09;1.20;99.90
11474;DHT22;5793;52.238;13.438;2024-01-15T02:40:38;1.30;99.90
11474;DHT22;5793;52.238;13.438;2024-01-15T02:43:06;1.30;99.90
11474;DHT22;5793;52.238;13.438;2024-01-15T02:45:34;1.20;99.90
11474;DHT22;5793;52.238;13.438;2024-01-15T02:48:02;1.10;99.90
11474;DHT22;5793;52.238;13.438;2024-01-15T02:50:30;1.10;99.90
11474;DHT22;5793;52.238;13.438;2024-01-15T02:52:58;1.20;99.90
11474;DHT22;5793;52.238;13.438;2024-01-15T02:55:26;1.20;99.90
11474;DHT22;5793;52.238;13.438;2024-01-15T02:57:57;1.20;99.90
11474;DHT22;5793;52.238;13.438;2024-01-15T03:00:25;1.20;99.90
11474;DHT22;5793;52.238;13.438;2024-01-15T03:02:53;1.20;99.90
11474;DHT22;5793;52.238;13.438;2024-01-15T03:05:20;1.30;99.90
11474;DHT22;5793;52.238;13.438;2024-01-15T03:07:48;1.30;99.90
11474;DHT22;5793;52.238;13.438;2024-01-15T03:10:16;1.30;99.90
11474;DHT22;5793;52.238;13.438;2024-01-15T03:12:44;1.30;99.90
11474;DHT22;5793;52.238;13.438;2024-01-15T03:15:13;1.30;99.90
11474;DHT22;5793;52.238;13.438;2024-01-15T03:17:41;1.20;99.90
11474;DHT22;5793;52.238;13.438;2024-01-15T03:20:11;1.20;99.90
11474;DHT22;5793;52.238;13.438;2024-01-15T03:22:39;1.20;99.90
11474;DHT22;5793;52.238;13.438;2024-01-15T03:25:07;1.20;99.90
11474;DHT22;5793;52.238;13.438;2024-01-15T03:27:35;1.20;99.90
11474;DHT22;5793;52.238;13.438;2024-01-15T03:30:03;1.20;99.90
11474;DHT22;5793;52.238;13.438;2024-01-15T03:32:32;1.10;99.90
11474;DHT22;5793;52.238;13.438;2024-01-15T03:35:00;1.10;99.90
11474;DHT22;5793;52.238;13.438;2024-01-15T03:37:28;1.10;99.90
11474;DHT22;5793;52.238;13.438;2024-01-15T03:39:56;1.10;99.90
11474;DHT22;5793;52.238;13.438;2024-01-15T03:42:24;1.10;99.90
11474;DHT22;5793;52.238;13.438;2024-01-15T03:44:52;1.10;99.90
11474;DHT22;5793;52.238;13.438;2024-01-15T03:47:19;1.10;99.90
11474;DHT22;5793;52.238;13.438;2024-01-15T03:49:49;1.20;99.90
11474;DHT22;5793;52.238;13.438;2024-01-15T03:52:17;1.20;99.90
11474;DHT22;5793;52.238;13.438;2024-01-15T03:54:44;1.20;99.90
11474;DHT22;5793;52.238;13.438;2024-01-15T03:57:12;1.20;99.90
11474;DHT22;5793;52.238;13.438;2024-01-15T03:59:40;1.30;99.90
11474;DHT22;5793;52.238;13.438;2024-01-15T04:02:09;1.40;99.90
11474;DHT22;5793;52.238;13.438;2024-01-15T04:04:36;1.40;99.90
11474;DHT22;5793;52.238;13.438;2024-01-15T04:07:09;1.40;99.90
11474;DHT22;5793;52.238;13.438;2024-01-15T04:09:37;1.50;99.90
11474;DHT22;5793;52.238;13.438;2024-01-15T04:12:05;1.50;99.90
11474;DHT22;5793;52.238;13.438;2024-01-15T04:14:33;1.50;99.90
11474;DHT22;5793;52.238;13.438;2024-01-15T04:17:01;1.50;99.90
11474;DHT22;5793;52.238;13.438;2024-01-15T04:19:28;1.60;99.90
11474;DHT22;5793;52.238;13.438;2024-01-15T04:21:56;1.60;99.90
11474;DHT22;5793;52.238;13.438;2024-01-15T04:24:25;1.60;99.90
11474;DHT22;5793;52.238;13.438;2024-01-15T04:26:53;1.60;99.90
11474;DHT22;5793;52.238;13.438;2024-01-15T04:29:21;1.60;99.90
11474;DHT22;5793;52.238;13.438;2024-01-15T04:31:49;1.60;99.90
11474;DHT22;5793;52.238;13.438;2024-01-15T04:34:17;1.60;99.90
11474;DHT22;5793;52.238;13.438;2024-01-15T04:36:44;1.60;99.90
11474;DHT22;5793;52.238;13.438;2024-01-15T04:39:12;1.60;99.90
11474;DHT22;5793;52.238;13.438;2024-01-15T04:41:42;1.70;99.90
11474;DHT22;5793;52.238;13.438;2024-01-15T04:44:09;1.70;99.90
11474;DHT22;5793;52.238;13.438;2024-01-15T04:46:37;1.70;99.90
11474;DHT22;5793;52.238;13.438;2024-01-15T04:49:05;1.70;99.90
11474;DHT22;5793;52.238;13.438;2024-01-15T04:51:33;1.70;99.90
11474;DHT22;5793;52.238;13.438;2024-01-15T04:54:02;1.70;99.90
11474;DHT22;5793;52.238;13.438;2024-01-15T04:56:29;1.70;99.90
11474;DHT22;5793;52.238;13.438;2024-01-15T04:58:58;1.70;99.90
11474;DHT22;5793;52.238;13.438;2024-01-15T05:01:30;1.70;99.90
11474;DHT22;5793;52.238;13.438;2024-01-15T05:03:58;1.70;99.90
11474;DHT22;5793;52.238;13.438;2024-01-15T05:06:26;1.70;99.90
11474;DHT22;5793;52.238;13.438;2024-01-15T05:08:54;1.70;99.90
11474;DHT22;5793;52.238;13.438;2024-01-15T05:11:22;1.70;99.90
11474;DHT22;5793;52.238;13.438;2024-01-15T05:13:50;1.70;99.90
11474;DHT22;5793;52.238;13.438;2024-01-15T05:16:20;1.70;99.90
11474;DHT22;5793;52.238;13.438;2024-01-15T05:18:47;1.70;99.90
11474;DHT22;5793;52.238;13.438;2024-01-15T05:21:15;1.70;99.90
11474;DHT22;5793;52.238;13.438;2024-01-15T05:23:43;1.70;99.90
11474;DHT22;5793;52.238;13.438;2024-01-15T05:26:11;1.70;99.90
11474;DHT22;5793;52.238;13.438;2024-01-15T05:28:40;1.70;99.90
11474;DHT22;5793;52.238;13.438;2024-01-15T05:31:08;1.80;99.90
11474;DHT22;5793;52.238;13.438;2024-01-15T05:33:38;1.80;99.90
11474;DHT22;5793;52.238;13.438;2024-01-15T05:36:07;1.80;99.90
11474;DHT22;5793;52.238;13.438;2024-01-15T05:38:35;1.80;99.90
11474;DHT22;5793;52.238;13.438;2024-01-15T05:41:02;1.80;99.90
11474;DHT22;5793;52.238;13.438;2024-01-15T05:43:30;1.80;99.90
11474;DHT22;5793;52.238;13.438;2024-01-15T05:45:58;1.80;99.90
11474;DHT22;5793;52.238;13.438;2024-01-15T05:48:26;1.80;99.90
11474;DHT22;5793;52.238;13.438;2024-01-15T05:50:55;1.90;99.90
11474;DHT22;5793;52.238;13.438;2024-01-15T05:53:23;1.90;99.90
11474;DHT22;5793;52.238;13.438;2024-01-15T05:55:51;1.90;99.90
11474;DHT22;5793;52.238;13.438;2024-01-15T05:58:18;1.90;99.90
11474;DHT22;5793;52.238;13.438;2024-01-15T06:00:46;1.90;99.90
11474;DHT22;5793;52.238;13.438;2024-01-15T06:03:16;1.90;99.90
11474;DHT22;5793;52.238;13.438;2024-01-15T06:05:44;1.90;99.90
11474;DHT22;5793;52.238;13.438;2024-01-15T06:08:13;1.90;99.90
11474;DHT22;5793;52.238;13.438;2024-01-15T06:10:42;1.90;99.90
11474;DHT22;5793;52.238;13.438;2024-01-15T06:13:09;1.90;99.90
11474;DHT22;5793;52.238;13.438;2024-01-15T06:15:37;1.80;99.90
11474;DHT22;5793;52.238;13.438;2024-01-15T06:18:05;1.90;99.90
11474;DHT22;5793;52.238;13.438;2024-01-15T06:20:33;1.90;99.90
11474;DHT22;5793;52.238;13.438;2024-01-15T06:23:01;1.90;99.90
11474;DHT22;5793;52.238;13.438;2024-01-15T06:25:30;1.90;99.90
11474;DHT22;5793;52.238;13.438;2024-01-15T06:27:58;2.00;99.90
11474;DHT22;5793;52.238;13.438;2024-01-15T06:30:26;2.00;99.90
11474;DHT22;5793;52.238;13.438;2024-01-15T06:32:54;2.00;99.90
11474;DHT22;5793;52.238;13.438;2024-01-15T06:35:22;2.00;99.90
11474;DHT22;5793;52.238;13.438;2024-01-15T06:37:50;2.00;99.90
11474;DHT22;5793;52.238;13.438;2024-01-15T06:40:17;2.00;99.90
11474;DHT22;5793;52.238;13.438;2024-01-15T06:42:46;2.00;99.90
11474;DHT22;5793;52.238;13.438;2024-01-15T06:45:14;2.00;99.90
11474;DHT22;5793;52.238;13.438;2024-01-15T06:47:42;1.90;99.90
11474;DHT22;5793;52.238;13.438;2024-01-15T06:50:10;1.90;99.90
11474;DHT22;5793;52.238;13.438;2024-01-15T06:52:38;1.90;99.90
11474;DHT22;5793;52.238;13.438;2024-01-15T06:55:06;1.90;99.90
11474;DHT22;5793;52.238;13.438;2024-01-15T06:57:34;1.90;99.90
11474;DHT22;5793;52.238;13.438;2024-01-15T07:00:05;1.90;99.90
11474;DHT22;5793;52.238;13.438;2024-01-15T07:02:35;1.90;99.90
11474;DHT22;5793;52.238;13.438;2024-01-15T07:05:03;1.90;99.90
11474;DHT22;5793;52.238;13.438;2024-01-15T07:07:32;1.90;99.90
11474;DHT22;5793;52.238;13.438;2024-01-15T07:09:59;1.90;99.90
11474;DHT22;5793;52.238;13.438;2024-01-15T07:12:27;1.90;99.90
11474;DHT22;5793;52.238;13.438;2024-01-15T07:14:56;1.90;99.90
11474;DHT22;5793;52.238;13.438;2024-01-15T07:17:25;1.90;99.90
11474;DHT22;5793;52.238;13.438;2024-01-15T07:19:53;1.90;99.90
11474;DHT22;5793;52.238;13.438;2024-01-15T07:22:20;1.90;99.90
11474;DHT22;5793;52.238;13.438;2024-01-15T07:24:48;1.90;99.90
11474;DHT22;5793;52.238;13.438;2024-01-15T07:27:16;1.90;99.90
11474;DHT22;5793;52.238;13.438;2024-01-15T07:29:44;2.00;99.90
11474;DHT22;5793;52.238;13.438;2024-01-15T07:32:12;2.00;99.90
11474;DHT22;5793;52.238;13.438;2024-01-15T07:34:41;2.00;99.90
11474;DHT22;5793;52.238;13.438;2024-01-15T07:37:09;2.10;99.90
11474;DHT22;5793;52.238;13.438;2024-01-15T07:39:37;2.10;99.90
11474;DHT22;5793;52.238;13.438;2024-01-15T07:42:05;2.10;99.90
11474;DHT22;5793;52.238;13.438;2024-01-15T07:44:33;2.00;99.90
11474;DHT22;5793;52.238;13.438;2024-01-15T07:47:04;2.10;99.90
11474;DHT22;5793;52.238;13.438;2024-01-15T07:49:32;2.10;99.90
11474;DHT22;5793;52.238;13.438;2024-01-15T07:52:02;2.10;99.90
11474;DHT22;5793;52.238;13.438;2024-01-15T07:54:31;2.10;99.90
11474;DHT22;5793;52.238;13.438;2024-01-15T07:57:00;2.10;99.90
11474;DHT22;5793;52.238;13.438;2024-01-15T07:59:29;2.10;99.90
11474;DHT22;5793;52.238;13.438;2024-01-15T08:01:59;2.10;99.90
11474;DHT22;5793;52.238;13.438;2024-01-15T08:04:27;2.10;99.90
11474;DHT22;5793;52.238;13.438;2024-01-15T08:06:55;2.10;99.90
11474;DHT22;5793;52.238;13.438;2024-01-15T08:09:25;2.10;99.90
11474;DHT22;5793;52.238;13.438;2024-01-15T08:11:52;2.20;99.90
11474;DHT22;5793;52.238;13.438;2024-01-15T08:14:20;2.20;99.90
11474;DHT22;5793;52.238;13.438;2024-01-15T08:16:48;2.20;99.90
11474;DHT22;5793;52.238;13.438;2024-01-15T08:19:16;2.20;99.90
11474;DHT22;5793;52.238;13.438;2024-01-15T08:21:44;2.20;99.90
11474;DHT22;5793;52.238;13.438;2024-01-15T08:24:12;2.20;99.90
11474;DHT22;5793;52.238;13.438;2024-01-15T08:26:41;2.20;99.90
11474;DHT22;5793;52.238;13.438;2024-01-15T08:29:09;2.20;99.90
11474;DHT22;5793;52.238;13.438;2024-01-15T08:31:36;2.20;99.90
11474;DHT22;5793;52.238;13.438;2024-01-15T08:34:04;2.20;99.90
11474;DHT22;5793;52.238;13.438;2024-01-15T08:36:33;2.20;99.90
11474;DHT22;5793;52.238;13.438;2024-01-15T08:39:03;2.20;99.90
11474;DHT22;5793;52.238;13.438;2024-01-15T08:41:31;2.20;99.90
11474;DHT22;5793;52.238;13.438;2024-01-15T08:44:00;2.20;99.90
11474;DHT22;5793;52.238;13.438;2024-01-15T08:46:29;2.20;99.90
11474;DHT22;5793;52.238;13.438;2024-01-15T08:48:57;2.10;99.90
11474;DHT22;5793;52.238;13.438;2024-01-15T08:51:25;2.10;99.90
11474;DHT22;5793;52.238;13.438;2024-01-15T08:53:53;2.10;99.90
11474;DHT22;5793;52.238;13.438;2024-01-15T08:56:20;2.20;99.90
11474;DHT22;5793;52.238;13.438;2024-01-15T08:58:48;2.20;99.90
11474;DHT22;5793;52.238;13.438;2024-01-15T09:01:18;2.30;99.90
11474;DHT22;5793;52.238;13.438;2024-01-15T09:03:46;2.30;99.90
11474;DHT22;5793;52.238;13.438;2024-01-15T09:06:15;2.30;99.90
11474;DHT22;5793;52.238;13.438;2024-01-15T09:08:43;2.30;99.90
11474;DHT22;5793;52.238;13.438;2024-01-15T09:11:10;2.30;99.90
11474;DHT22;5793;52.238;13.438;2024-01-15T09:13:38;2.30;99.90
11474;DHT22;5793;52.238;13.438;2024-01-15T09:16:07;2.30;99.90
11474;DHT22;5793;52.238;13.438;2024-01-15T09:18:37;2.30;99.90
11474;DHT22;5793;52.238;13.438;2024-01-15T09:21:05;2.30;99.90
11474;DHT22;5793;52.238;13.438;2024-01-15T09:23:33;2.30;99.90
11474;DHT22;5793;52.238;13.438;2024-01-15T09:26:01;2.20;99.90
11474;DHT22;5793;52.238;13.438;2024-01-15T09:28:29;2.30;99.90
11474;DHT22;5793;52.238;13.438;2024-01-15T09:30:56;2.30;99.90
11474;DHT22;5793;52.238;13.438;2024-01-15T09:33:24;2.30;99.90
11474;DHT22;5793;52.238;13.438;2024-01-15T09:35:54;2.30;99.90
11474;DHT22;5793;52.238;13.438;2024-01-15T09:38:22;2.30;99.90
11474;DHT22;5793;52.238;13.438;2024-01-15T09:40:50;2.30;99.90
11474;DHT22;5793;52.238;13.438;2024-01-15T09:43:19;2.40;99.90
11474;DHT22;5793;52.238;13.438;2024-01-15T09:45:48;2.30;99.90
11474;DHT22;5793;52.238;13.438;2024-01-15T09:48:17;2.30;99.90
11474;DHT22;5793;52.238;13.438;2024-01-15T09:50:45;2.30;99.90
11474;DHT22;5793;52.238;13.438;2024-01-15T09:53:15;2.20;99.90
11474;DHT22;5793;52.238;13.438;2024-01-15T09:55:43;2.20;99.90
11474;DHT22;5793;52.238;13.438;2024-01-15T09:58:11;2.20;99.90
11474;DHT22;5793;52.238;13.438;2024-01-15T10:00:39;2.20;99.90
11474;DHT22;5793;52.238;13.438;2024-01-15T10:03:08;2.30;99.90
11474;DHT22;5793;52.238;13.438;2024-01-15T10:05:37;2.40;99.90
11474;DHT22;5793;52.238;13.438;2024-01-15T10:08:05;2.30;99.90
11474;DHT22;5793;52.238;13.438;2024-01-15T10:10:36;2.30;99.90
11474;DHT22;5793;52.238;13.438;2024-01-15T10:13:04;2.40;99.90
11474;DHT22;5793;52.238;13.438;2024-01-15T10:15:34;2.40;99.90
11474;DHT22;5793;52.238;13.438;2024-01-15T10:18:04;2.50;99.90
11474;DHT22;5793;52.238;13.438;2024-01-15T10:20:32;2.50;99.90
11474;DHT22;5793;52.238;13.438;2024-01-15T10:23:00;2.50;99.90
11474;DHT22;5793;52.238;13.438;2024-01-15T10:25:29;2.50;99.90
11474;DHT22;5793;52.238;13.438;2024-01-15T10:28:02;2.40;99.90
11474;DHT22;5793;52.238;13.438;2024-01-15T10:30:32;2.40;99.90
11474;DHT22;5793;52.238;13.438;2024-01-15T10:33:02;2.40;99.90
11474;DHT22;5793;52.238;13.438;2024-01-15T10:35:31;2.40;99.90
11474;DHT22;5793;52.238;13.438;2024-01-15T10:37:58;2.40;99.90
11474;DHT22;5793;52.238;13.438;2024-01-15T10:40:27;2.40;99.90
11474;DHT22;5793;52.238;13.438;2024-01-15T10:42:55;2.50;99.90
11474;DHT22;5793;52.238;13.438;2024-01-15T10:45:24;2.50;99.90
11474;DHT22;5793;52.238;13.438;2024-01-15T10:47:53;2.50;99.90
11474;DHT22;5793;52.238;13.438;2024-01-15T10:50:25;2.50;99.90
11474;DHT22;5793;52.238;13.438;2024-01-15T10:52:53;2.50;99.90
11474;DHT22;5793;52.238;13.438;2024-01-15T10:55:22;2.50;99.90
11474;DHT22;5793;52.238;13.438;2024-01-15T10:57:51;2.60;99.90
11474;DHT22;5793;52.238;13.438;2024-01-15T11:00:20;2.60;99.90
11474;DHT22;5793;52.238;13.438;2024-01-15T11:02:50;2.70;99.90
11474;DHT22;5793;52.238;13.438;2024-01-15T11:05:22;2.70;99.90
11474;DHT22;5793;52.238;13.438;2024-01-15T11:07:50;2.70;99.90
11474;DHT22;5793;52.238;13.438;2024-01-15T11:10:40;2.80;99.90
11474;DHT22;5793;52.238;13.438;2024-01-15T11:13:10;2.80;99.90
11474;DHT22;5793;52.238;13.438;2024-01-15T11:15:57;2.80;99.90
11474;DHT22;5793;52.238;13.438;2024-01-15T11:18:28;2.80;99.90
11474;DHT22;5793;52.238;13.438;2024-01-15T11:21:24;2.60;99.90
11474;DHT22;5793;52.238;13.438;2024-01-15T11:23:55;2.50;99.90
11474;DHT22;5793;52.238;13.438;2024-01-15T11:26:29;2.40;99.90
11474;DHT22;5793;52.238;13.438;2024-01-15T11:28:57;2.20;99.90
11474;DHT22;5793;52.238;13.438;2024-01-15T11:31:28;2.10;99.90
11474;DHT22;5793;52.238;13.438;2024-01-15T11:33:57;1.90;99.90
11474;DHT22;5793;52.238;13.438;2024-01-15T11:37:01;1.80;99.90
11474;DHT22;5793;52.238;13.438;2024-01-15T11:39:41;1.90;99.90
11474;DHT22;5793;52.238;13.438;2024-01-15T11:42:11;2.00;99.90
11474;DHT22;5793;52.238;13.438;2024-01-15T11:44:39;2.30;99.90
11474;DHT22;5793;52.238;13.438;2024-01-15T11:47:09;2.50;99.90
11474;DHT22;5793;52.238;13.438;2024-01-15T11:50:01;2.40;99.90
11474;DHT22;5793;52.238;13.438;2024-01-15T11:52:33;2.30;99.90
11474;DHT22;5793;52.238;13.438;2024-01-15T11:55:10;2.30;99.90
11474;DHT22;5793;52.238;13.438;2024-01-15T11:57:42;2.30;99.90
11474;DHT22;5793;52.238;13.438;2024-01-15T12:00:13;2.20;99.90
11474;DHT22;5793;52.238;13.438;2024-01-15T12:02:42;2.20;99.90
11474;DHT22;5793;52.238;13.438;2024-01-15T12:05:13;2.20;99.90
11474;DHT22;5793;52.238;13.438;2024-01-15T12:07:42;2.10;99.90
11474;DHT22;5793;52.238;13.438;2024-01-15T12:10:10;2.20;99.90
11474;DHT22;5793;52.238;13.438;2024-01-15T12:12:58;2.40;99.90
11474;DHT22;5793;52.238;13.438;2024-01-15T12:15:27;2.40;99.90
11474;DHT22;5793;52.238;13.438;2024-01-15T12:17:57;2.40;99.90
11474;DHT22;5793;52.238;13.438;2024-01-15T12:20:28;2.30;99.90
11474;DHT22;5793;52.238;13.438;2024-01-15T12:22:56;2.30;99.90
11474;DHT22;5793;52.238;13.438;2024-01-15T12:25:30;2.30;99.90
11474;DHT22;5793;52.238;13.438;2024-01-15T12:27:59;2.20;99.90
11474;DHT22;5793;52.238;13.438;2024-01-15T12:30:28;2.20;99.90
11474;DHT22;5793;52.238;13.438;2024-01-15T12:33:01;2.10;99.90
11474;DHT22;5793;52.238;13.438;2024-01-15T12:35:30;2.00;99.90
11474;DHT22;5793;52.238;13.438;2024-01-15T12:38:00;2.10;99.90
11474;DHT22;5793;52.238;13.438;2024-01-15T12:40:30;2.10;99.90
11474;DHT22;5793;52.238;13.438;2024-01-15T12:42:58;2.10;99.90
11474;DHT22;5793;52.238;13.438;2024-01-15T12:45:26;2.20;99.90
11474;DHT22;5793;52.238;13.438;2024-01-15T12:47:53;2.20;99.90
11474;DHT22;5793;52.238;13.438;2024-01-15T12:50:24;2.30;99.90
11474;DHT22;5793;52.238;13.438;2024-01-15T12:52:53;2.30;99.90
11474;DHT22;5793;52.238;13.438;2024-01-15T12:55:21;2.20;99.90
11474;DHT22;5793;52.238;13.438;2024-01-15T12:57:49;2.10;99.90
11474;DHT22;5793;52.238;13.438;2024-01-15T13:00:19;2.10;99.90
11474;DHT22;5793;52.238;13.438;2024-01-15T13:02:47;2.10;99.90
11474;DHT22;5793;52.238;13.438;2024-01-15T13:05:16;2.00;99.90
11474;DHT22;5793;52.238;13.438;2024-01-15T13:07:45;1.90;99.90
11474;DHT22;5793;52.238;13.438;2024-01-15T13:10:14;1.80;99.90
11474;DHT22;5793;52.238;13.438;2024-01-15T13:12:41;1.90;99.90
11474;DHT22;5793;52.238;13.438;2024-01-15T13:15:09;1.90;99.90
11474;DHT22;5793;52.238;13.438;2024-01-15T13:17:41;1.90;99.90
11474;DHT22;5793;52.238;13.438;2024-01-15T13:20:10;1.90;99.90
11474;DHT22;5793;52.238;13.438;2024-01-15T13:22:39;1.90;99.90
11474;DHT22;5793;52.238;13.438;2024-01-15T13:25:08;2.00;99.90
11474;DHT22;5793;52.238;13.438;2024-01-15T13:27:37;2.00;99.90
11474;DHT22;5793;52.238;13.438;2024-01-15T13:30:08;2.00;99.90
11474;DHT22;5793;52.238;13.438;2024-01-15T13:32:37;2.00;99.90
11474;DHT22;5793;52.238;13.438;2024-01-15T13:35:05;2.00;99.90
11474;DHT22;5793;52.238;13.438;2024-01-15T13:37:36;2.00;99.90
11474;DHT22;5793;52.238;13.438;2024-01-15T13:40:05;2.00;99.90
11474;DHT22;5793;52.238;13.438;2024-01-15T13:42:37;2.00;99.90
11474;DHT22;5793;52.238;13.438;2024-01-15T13:45:06;1.90;99.90
11474;DHT22;5793;52.238;13.438;2024-01-15T13:47:34;1.90;99.90
11474;DHT22;5793;52.238;13.438;2024-01-15T13:50:02;1.90;99.90
11474;DHT22;5793;52.238;13.438;2024-01-15T13:52:30;1.90;99.90
11474;DHT22;5793;52.238;13.438;2024-01-15T13:54:58;2.00;99.90
11474;DHT22;5793;52.238;13.438;2024-01-15T13:57:26;2.00;99.90
11474;DHT22;5793;52.238;13.438;2024-01-15T13:59:55;2.00;99.90
11474;DHT22;5793;52.238;13.438;2024-01-15T14:02:23;1.90;99.90
11474;DHT22;5793;52.238;13.438;2024-01-15T14:04:52;1.80;99.90
11474;DHT22;5793;52.238;13.438;2024-01-15T14:07:20;1.90;99.90
11474;DHT22;5793;52.238;13.438;2024-01-15T14:09:48;1.90;99.90
11474;DHT22;5793;52.238;13.438;2024-01-15T14:12:16;1.90;99.90
11474;DHT22;5793;52.238;13.438;2024-01-15T14:14:44;1.90;99.90
11474;DHT22;5793;52.238;13.438;2024-01-15T14:17:13;1.90;99.90
11474;DHT22;5793;52.238;13.438;2024-01-15T14:19:41;1.90;99.90
11474;DHT22;5793;52.238;13.438;2024-01-15T14:22:09;1.90;99.90
11474;DHT22;5793;52.238;13.438;2024-01-15T14:24:37;1.90;99.90
11474;DHT22;5793;52.238;13.438;2024-01-15T14:27:05;1.90;99.90
11474;DHT22;5793;52.238;13.438;2024-01-15T14:29:33;1.90;99.90
11474;DHT22;5793;52.238;13.438;2024-01-15T14:32:02;1.90;99.90
11474;DHT22;5793;52.238;13.438;2024-01-15T14:34:32;1.90;99.90
11474;DHT22;5793;52.238;13.438;2024-01-15T14:37:00;1.80;99.90
11474;DHT22;5793;52.238;13.438;2024-01-15T14:39:28;1.90;99.90
11474;DHT22;5793;52.238;13.438;2024-01-15T14:41:55;1.80;99.90
11474;DHT22;5793;52.238;13.438;2024-01-15T14:44:23;1.80;99.90
11474;DHT22;5793;52.238;13.438;2024-01-15T14:46:51;1.80;99.90
11474;DHT22;5793;52.238;13.438;2024-01-15T14:49:19;1.70;99.90
11474;DHT22;5793;52.238;13.438;2024-01-15T14:51:48;1.80;99.90
11474;DHT22;5793;52.238;13.438;2024-01-15T14:54:16;1.80;99.90
11474;DHT22;5793;52.238;13.438;2024-01-15T14:56:46;1.80;99.90
11474;DHT22;5793;52.238;13.438;2024-01-15T14:59:14;1.80;99.90
11474;DHT22;5793;52.238;13.438;2024-01-15T15:01:42;1.80;99.90
11474;DHT22;5793;52.238;13.438;2024-01-15T15:04:10;1.80;99.90
11474;DHT22;5793;52.238;13.438;2024-01-15T15:06:38;1.80;99.90
11474;DHT22;5793;52.238;13.438;2024-01-15T15:09:07;1.70;99.90
11474;DHT22;5793;52.238;13.438;2024-01-15T15:11:38;1.70;99.90
11474;DHT22;5793;52.238;13.438;2024-01-15T15:14:06;1.70;99.90
11474;DHT22;5793;52.238;13.438;2024-01-15T15:16:34;1.70;99.90
11474;DHT22;5793;52.238;13.438;2024-01-15T15:19:02;1.70;99.90
11474;DHT22;5793;52.238;13.438;2024-01-15T15:21:30;1.70;99.90
11474;DHT22;5793;52.238;13.438;2024-01-15T15:23:58;1.70;99.90
11474;DHT22;5793;52.238;13.438;2024-01-15T15:26:28;1.70;99.90
11474;DHT22;5793;52.238;13.438;2024-01-15T15:28:56;1.70;99.90
11474;DHT22;5793;52.238;13.438;2024-01-15T15:31:23;1.70;99.90
11474;DHT22;5793;52.238;13.438;2024-01-15T15:33:51;1.70;99.90
11474;DHT22;5793;52.238;13.438;2024-01-15T15:36:19;1.70;99.90
11474;DHT22;5793;52.238;13.438;2024-01-15T15:38:47;1.70;99.90
11474;DHT22;5793;52.238;13.438;2024-01-15T15:41:15;1.70;99.90
11474;DHT22;5793;52.238;13.438;2024-01-15T15:43:44;1.80;99.90
11474;DHT22;5793;52.238;13.438;2024-01-15T15:46:12;1.60;99.90
11474;DHT22;5793;52.238;13.438;2024-01-15T15:48:40;1.60;99.90
11474;DHT22;5793;52.238;13.438;2024-01-15T15:51:09;1.60;99.90
11474;DHT22;5793;52.238;13.438;2024-01-15T15:53:36;1.50;99.90
11474;DHT22;5793;52.238;13.438;2024-01-15T15:56:05;1.40;99.90